sensor_id;sensor_type;location;lat;lon;timestamp;temperature;humidity
67890;DHT22;54685;52.082;5.426;2022-12-19T00:01:36;0.90;99.90
67890;DHT22;54685;52.082;5.426;2022-12-19T00:04:07;0.90;99.90
67890;DHT22;54685;52.082;5.426;2022-12-19T00:06:37;0.90;99.90
67890;DHT22;54685;52.082;5.426;2022-12-19T00:09:09;0.90;99.90
67890;DHT22;54685;52.082;5.426;2022-12-19T00:11:36;0.90;99.90
67890;DHT22;54685;52.082;5.426;2022-12-19T00:14:05;0.90;99.90
67890;DHT22;54685;52.082;5.426;2022-12-19T00:16:32;0.90;99.90
67890;DHT22;54685;52.082;5.426;2022-12-19T00:19:00;1.00;99.90
67890;DHT22;54685;52.082;5.426;2022-12-19T00:21:29;1.00;99.90
67890;DHT22;54685;52.082;5.426;2022-12-19T00:23:59;1.00;99.90
67890;DHT22;54685;52.082;5.426;2022-12-19T00:26:28;1.00;99.90
67890;DHT22;54685;52.082;5.426;2022-12-19T00:29:01;1.00;99.90
67890;DHT22;54685;52.082;5.426;2022-12-19T00:31:31;1.00;99.90
67890;DHT22;54685;52.082;5.426;2022-12-19T00:33:59;1.00;99.90
67890;DHT22;54685;52.082;5.426;2022-12-19T00:36:28;1.00;99.90
67890;DHT22;54685;52.082;5.426;2022-12-19T00:38:58;1.10;99.90
67890;DHT22;54685;52.082;5.426;2022-12-19T00:41:30;1.10;99.90
67890;DHT22;54685;52.082;5.426;2022-12-19T00:43:59;1.20;99.90
67890;DHT22;54685;52.082;5.426;2022-12-19T00:46:28;1.20;99.90
67890;DHT22;54685;52.082;5.426;2022-12-19T00:48:56;1.20;99.90
67890;DHT22;54685;52.082;5.426;2022-12-19T00:51:25;1.20;99.90
67890;DHT22;54685;52.082;5.426;2022-12-19T00:53:54;1.20;99.90
67890;DHT22;54685;52.082;5.426;2022-12-19T00:56:26;1.20;99.90
67890;DHT22;54685;52.082;5.426;2022-12-19T00:58:54;1.20;99.90
67890;DHT22;54685;52.082;5.426;2022-12-19T01:01:22;1.20;99.90
67890;DHT22;54685;52.082;5.426;2022-12-19T01:03:50;1.20;99.90
67890;DHT22;54685;52.082;5.426;2022-12-19T01:06:36;1.30;99.90
67890;DHT22;54685;52.082;5.426;2022-12-19T01:09:04;1.30;99.90
67890;DHT22;54685;52.082;5.426;2022-12-19T01:11:31;1.30;99.90
67890;DHT22;54685;52.082;5.426;2022-12-19T01:14:17;1.30;99.90
67890;DHT22;54685;52.082;5.426;2022-12-19T01:16:49;1.40;99.90
67890;DHT22;54685;52.082;5.426;2022-12-19T01:19:18;1.40;99.90
67890;DHT22;54685;52.082;5.426;2022-12-19T01:21:44;1.40;99.90
67890;DHT22;54685;52.082;5.426;2022-12-19T01:24:11;1.40;99.90
67890;DHT22;54685;52.082;5.426;2022-12-19T01:26:40;1.40;99.90
67890;DHT22;54685;52.082;5.426;2022-12-19T01:29:06;1.40;99.90
67890;DHT22;54685;52.082;5.426;2022-12-19T01:31:33;1.40;99.90
67890;DHT22;54685;52.082;5.426;2022-12-19T01:34:01;1.40;99.90
67890;DHT22;54685;52.082;5.426;2022-12-19T01:36:28;1.40;99.90
67890;DHT22;54685;52.082;5.426;2022-12-19T01:38:58;1.40;99.90
67890;DHT22;54685;52.082;5.426;2022-12-19T01:41:26;1.40;99.90
67890;DHT22;54685;52.082;5.426;2022-12-19T01:46:29;1.50;99.90
67890;DHT22;54685;52.082;5.426;2022-12-19T01:48:59;1.50;99.90
67890;DHT22;54685;52.082;5.426;2022-12-19T01:51:37;1.50;99.90
67890;DHT22;54685;52.082;5.426;2022-12-19T01:54:08;1.50;99.90
67890;DHT22;54685;52.082;5.426;2022-12-19T01:56:40;1.60;99.90
67890;DHT22;54685;52.082;5.426;2022-12-19T01:59:22;1.60;99.90
67890;DHT22;54685;52.082;5.426;2022-12-19T02:01:52;1.60;99.90
67890;DHT22;54685;52.082;5.426;2022-12-19T02:04:24;1.70;99.90
67890;DHT22;54685;52.082;5.426;2022-12-19T02:06:54;1.70;99.90
67890;DHT22;54685;52.082;5.426;2022-12-19T02:09:23;1.70;99.90
67890;DHT22;54685;52.082;5.426;2022-12-19T02:11:51;1.70;99.90
67890;DHT22;54685;52.082;5.426;2022-12-19T02:14:18;1.80;99.90
67890;DHT22;54685;52.082;5.426;2022-12-19T02:16:56;1.90;99.90
67890;DHT22;54685;52.082;5.426;2022-12-19T02:33:53;2.20;99.90
67890;DHT22;54685;52.082;5.426;2022-12-19T02:36:31;2.30;99.90
67890;DHT22;54685;52.082;5.426;2022-12-19T02:39:15;2.30;99.90
67890;DHT22;54685;52.082;5.426;2022-12-19T02:41:47;2.40;99.90
67890;DHT22;54685;52.082;5.426;2022-12-19T02:44:24;2.40;99.90
67890;DHT22;54685;52.082;5.426;2022-12-19T02:46:53;2.40;99.90
67890;DHT22;54685;52.082;5.426;2022-12-19T02:49:23;2.40;99.90
67890;DHT22;54685;52.082;5.426;2022-12-19T02:51:57;2.50;99.90
67890;DHT22;54685;52.082;5.426;2022-12-19T02:54:24;2.50;99.90
67890;DHT22;54685;52.082;5.426;2022-12-19T02:57:01;2.50;99.90
67890;DHT22;54685;52.082;5.426;2022-12-19T03:02:58;2.50;99.90
67890;DHT22;54685;52.082;5.426;2022-12-19T03:08:25;2.60;99.90
67890;DHT22;54685;52.082;5.426;2022-12-19T03:11:00;2.60;99.90
67890;DHT22;54685;52.082;5.426;2022-12-19T03:13:28;2.70;99.90
67890;DHT22;54685;52.082;5.426;2022-12-19T03:15:57;2.70;99.90
67890;DHT22;54685;52.082;5.426;2022-12-19T03:18:25;2.70;99.90
67890;DHT22;54685;52.082;5.426;2022-12-19T03:23:30;2.80;99.90
67890;DHT22;54685;52.082;5.426;2022-12-19T03:26:01;2.80;99.90
67890;DHT22;54685;52.082;5.426;2022-12-19T03:31:21;2.90;99.90
67890;DHT22;54685;52.082;5.426;2022-12-19T03:33:53;2.90;99.90
67890;DHT22;54685;52.082;5.426;2022-12-19T03:36:26;2.90;99.90
67890;DHT22;54685;52.082;5.426;2022-12-19T03:38:55;2.90;99.90
67890;DHT22;54685;52.082;5.426;2022-12-19T03:41:23;3.00;99.90
67890;DHT22;54685;52.082;5.426;2022-12-19T03:44:12;3.00;99.90
67890;DHT22;54685;52.082;5.426;2022-12-19T03:46:44;3.00;99.90
67890;DHT22;54685;52.082;5.426;2022-12-19T03:49:13;3.00;99.90
67890;DHT22;54685;52.082;5.426;2022-12-19T03:54:37;3.10;99.90
67890;DHT22;54685;52.082;5.426;2022-12-19T03:57:20;3.10;99.90
67890;DHT22;54685;52.082;5.426;2022-12-19T03:59:54;3.10;99.90
67890;DHT22;54685;52.082;5.426;2022-12-19T04:02:22;3.10;99.90
67890;DHT22;54685;52.082;5.426;2022-12-19T04:04:54;3.20;99.90
67890;DHT22;54685;52.082;5.426;2022-12-19T04:07:23;3.20;99.90
67890;DHT22;54685;52.082;5.426;2022-12-19T04:09:51;3.20;99.90
67890;DHT22;54685;52.082;5.426;2022-12-19T04:12:24;3.20;99.90
67890;DHT22;54685;52.082;5.426;2022-12-19T04:14:53;3.30;99.90
67890;DHT22;54685;52.082;5.426;2022-12-19T04:17:33;3.30;99.90
67890;DHT22;54685;52.082;5.426;2022-12-19T04:22:41;3.30;99.90
67890;DHT22;54685;52.082;5.426;2022-12-19T04:25:14;3.30;99.90
67890;DHT22;54685;52.082;5.426;2022-12-19T04:27:45;3.30;99.90
67890;DHT22;54685;52.082;5.426;2022-12-19T04:30:14;3.30;99.90
67890;DHT22;54685;52.082;5.426;2022-12-19T04:32:43;3.30;99.90
67890;DHT22;54685;52.082;5.426;2022-12-19T04:35:11;3.40;99.90
67890;DHT22;54685;52.082;5.426;2022-12-19T04:37:38;3.30;99.90
67890;DHT22;54685;52.082;5.426;2022-12-19T04:40:05;3.40;99.90
67890;DHT22;54685;52.082;5.426;2022-12-19T04:42:33;3.40;99.90
67890;DHT22;54685;52.082;5.426;2022-12-19T04:45:00;3.40;99.90
67890;DHT22;54685;52.082;5.426;2022-12-19T04:47:27;3.50;99.90
67890;DHT22;54685;52.082;5.426;2022-12-19T04:49:54;3.50;99.90
67890;DHT22;54685;52.082;5.426;2022-12-19T04:52:21;3.50;99.90
67890;DHT22;54685;52.082;5.426;2022-12-19T04:54:47;3.50;99.90
67890;DHT22;54685;52.082;5.426;2022-12-19T04:57:14;3.60;99.90
67890;DHT22;54685;52.082;5.426;2022-12-19T04:59:41;3.60;99.90
67890;DHT22;54685;52.082;5.426;2022-12-19T05:02:08;3.60;99.90
67890;DHT22;54685;52.082;5.426;2022-12-19T05:04:35;3.70;99.90
67890;DHT22;54685;52.082;5.426;2022-12-19T05:07:01;3.70;99.90
67890;DHT22;54685;52.082;5.426;2022-12-19T05:09:28;3.70;99.90
67890;DHT22;54685;52.082;5.426;2022-12-19T05:11:55;3.70;99.90
67890;DHT22;54685;52.082;5.426;2022-12-19T05:14:21;3.80;99.90
67890;DHT22;54685;52.082;5.426;2022-12-19T05:16:48;3.80;99.90
67890;DHT22;54685;52.082;5.426;2022-12-19T05:19:15;3.80;99.90
67890;DHT22;54685;52.082;5.426;2022-12-19T05:21:42;3.90;99.90
67890;DHT22;54685;52.082;5.426;2022-12-19T05:24:08;3.90;99.90
67890;DHT22;54685;52.082;5.426;2022-12-19T05:26:35;4.00;99.90
67890;DHT22;54685;52.082;5.426;2022-12-19T05:29:02;4.00;99.90
67890;DHT22;54685;52.082;5.426;2022-12-19T05:31:29;4.00;99.90
67890;DHT22;54685;52.082;5.426;2022-12-19T05:33:56;4.10;99.90
67890;DHT22;54685;52.082;5.426;2022-12-19T05:36:23;4.10;99.90
67890;DHT22;54685;52.082;5.426;2022-12-19T05:38:57;4.10;99.90
67890;DHT22;54685;52.082;5.426;2022-12-19T05:41:24;4.20;99.90
67890;DHT22;54685;52.082;5.426;2022-12-19T05:43:54;4.20;99.90
67890;DHT22;54685;52.082;5.426;2022-12-19T05:46:22;4.20;99.90
67890;DHT22;54685;52.082;5.426;2022-12-19T05:48:50;4.20;99.90
67890;DHT22;54685;52.082;5.426;2022-12-19T05:51:17;4.30;99.90
67890;DHT22;54685;52.082;5.426;2022-12-19T05:53:44;4.30;99.90
67890;DHT22;54685;52.082;5.426;2022-12-19T05:56:19;4.40;99.90
67890;DHT22;54685;52.082;5.426;2022-12-19T05:58:47;4.40;99.90
67890;DHT22;54685;52.082;5.426;2022-12-19T06:01:17;4.50;99.90
67890;DHT22;54685;52.082;5.426;2022-12-19T06:03:45;4.60;99.90
67890;DHT22;54685;52.082;5.426;2022-12-19T06:06:16;4.70;99.90
67890;DHT22;54685;52.082;5.426;2022-12-19T06:08:44;4.70;99.90
67890;DHT22;54685;52.082;5.426;2022-12-19T06:11:13;4.80;99.90
67890;DHT22;54685;52.082;5.426;2022-12-19T06:13:40;4.90;99.90
67890;DHT22;54685;52.082;5.426;2022-12-19T06:16:10;5.00;99.90
67890;DHT22;54685;52.082;5.426;2022-12-19T06:18:40;5.10;99.90
67890;DHT22;54685;52.082;5.426;2022-12-19T06:21:16;5.10;99.90
67890;DHT22;54685;52.082;5.426;2022-12-19T06:23:43;5.10;99.90
67890;DHT22;54685;52.082;5.426;2022-12-19T06:26:12;5.20;99.90
67890;DHT22;54685;52.082;5.426;2022-12-19T06:28:46;5.30;99.90
67890;DHT22;54685;52.082;5.426;2022-12-19T06:31:13;5.40;99.90
67890;DHT22;54685;52.082;5.426;2022-12-19T06:33:40;5.40;99.90
67890;DHT22;54685;52.082;5.426;2022-12-19T06:36:14;5.50;99.90
67890;DHT22;54685;52.082;5.426;2022-12-19T06:38:42;5.60;99.90
67890;DHT22;54685;52.082;5.426;2022-12-19T06:41:09;5.60;99.90
67890;DHT22;54685;52.082;5.426;2022-12-19T06:43:59;5.60;99.90
67890;DHT22;54685;52.082;5.426;2022-12-19T06:46:26;5.60;99.90
67890;DHT22;54685;52.082;5.426;2022-12-19T06:48:53;5.70;99.90
67890;DHT22;54685;52.082;5.426;2022-12-19T06:51:20;5.70;99.90
67890;DHT22;54685;52.082;5.426;2022-12-19T06:53:47;5.80;99.90
67890;DHT22;54685;52.082;5.426;2022-12-19T06:56:15;5.80;99.90
67890;DHT22;54685;52.082;5.426;2022-12-19T06:58:42;5.80;99.90
67890;DHT22;54685;52.082;5.426;2022-12-19T07:01:20;5.90;99.90
67890;DHT22;54685;52.082;5.426;2022-12-19T07:03:50;5.90;99.90
67890;DHT22;54685;52.082;5.426;2022-12-19T07:06:17;5.90;99.90
67890;DHT22;54685;52.082;5.426;2022-12-19T07:08:44;6.00;99.90
67890;DHT22;54685;52.082;5.426;2022-12-19T07:11:11;6.00;99.90
67890;DHT22;54685;52.082;5.426;2022-12-19T07:13:38;6.00;99.90
67890;DHT22;54685;52.082;5.426;2022-12-19T07:16:05;6.00;99.90
67890;DHT22;54685;52.082;5.426;2022-12-19T07:18:36;6.10;99.90
67890;DHT22;54685;52.082;5.426;2022-12-19T07:21:04;6.10;99.90
67890;DHT22;54685;52.082;5.426;2022-12-19T07:23:33;6.20;99.90
67890;DHT22;54685;52.082;5.426;2022-12-19T07:26:00;6.20;99.90
67890;DHT22;54685;52.082;5.426;2022-12-19T07:28:27;6.20;99.90
67890;DHT22;54685;52.082;5.426;2022-12-19T07:30:54;6.20;99.90
67890;DHT22;54685;52.082;5.426;2022-12-19T07:33:21;6.20;99.90
67890;DHT22;54685;52.082;5.426;2022-12-19T07:35:48;6.30;99.90
67890;DHT22;54685;52.082;5.426;2022-12-19T07:38:14;6.30;99.90
67890;DHT22;54685;52.082;5.426;2022-12-19T07:40:41;6.30;99.90
67890;DHT22;54685;52.082;5.426;2022-12-19T07:43:08;6.40;99.90
67890;DHT22;54685;52.082;5.426;2022-12-19T07:45:36;6.40;99.90
67890;DHT22;54685;52.082;5.426;2022-12-19T07:48:04;6.40;99.90
67890;DHT22;54685;52.082;5.426;2022-12-19T07:50:32;6.50;99.90
67890;DHT22;54685;52.082;5.426;2022-12-19T07:52:59;6.50;99.90
67890;DHT22;54685;52.082;5.426;2022-12-19T07:55:26;6.50;99.90
67890;DHT22;54685;52.082;5.426;2022-12-19T07:57:53;6.50;99.90
67890;DHT22;54685;52.082;5.426;2022-12-19T08:00:21;6.60;99.90
67890;DHT22;54685;52.082;5.426;2022-12-19T08:02:48;6.60;99.90
67890;DHT22;54685;52.082;5.426;2022-12-19T08:05:16;6.60;99.90
67890;DHT22;54685;52.082;5.426;2022-12-19T08:07:42;6.60;99.90
67890;DHT22;54685;52.082;5.426;2022-12-19T08:10:09;6.60;99.90
67890;DHT22;54685;52.082;5.426;2022-12-19T08:12:40;6.60;99.90
67890;DHT22;54685;52.082;5.426;2022-12-19T08:15:08;6.60;99.90
67890;DHT22;54685;52.082;5.426;2022-12-19T08:17:36;6.70;99.90
67890;DHT22;54685;52.082;5.426;2022-12-19T08:20:06;6.70;99.90
67890;DHT22;54685;52.082;5.426;2022-12-19T08:22:33;6.80;99.90
67890;DHT22;54685;52.082;5.426;2022-12-19T08:25:00;6.80;99.90
67890;DHT22;54685;52.082;5.426;2022-12-19T08:27:27;6.80;99.90
67890;DHT22;54685;52.082;5.426;2022-12-19T08:29:54;6.80;99.90
67890;DHT22;54685;52.082;5.426;2022-12-19T08:32:21;6.80;99.90
67890;DHT22;54685;52.082;5.426;2022-12-19T08:34:48;6.90;99.90
67890;DHT22;54685;52.082;5.426;2022-12-19T08:37:16;6.90;99.90
67890;DHT22;54685;52.082;5.426;2022-12-19T08:39:42;6.90;99.90
67890;DHT22;54685;52.082;5.426;2022-12-19T08:42:09;6.90;99.90
67890;DHT22;54685;52.082;5.426;2022-12-19T08:44:36;7.00;99.90
67890;DHT22;54685;52.082;5.426;2022-12-19T08:47:03;7.00;99.90
67890;DHT22;54685;52.082;5.426;2022-12-19T08:49:30;7.00;99.90
67890;DHT22;54685;52.082;5.426;2022-12-19T08:51:56;7.00;99.90
67890;DHT22;54685;52.082;5.426;2022-12-19T08:54:23;7.00;99.90
67890;DHT22;54685;52.082;5.426;2022-12-19T08:56:50;7.10;99.90
67890;DHT22;54685;52.082;5.426;2022-12-19T08:59:17;7.10;99.90
67890;DHT22;54685;52.082;5.426;2022-12-19T09:01:56;7.10;99.90
67890;DHT22;54685;52.082;5.426;2022-12-19T09:04:23;7.10;99.90
67890;DHT22;54685;52.082;5.426;2022-12-19T09:07:09;7.10;99.90
67890;DHT22;54685;52.082;5.426;2022-12-19T09:09:40;7.10;99.90
67890;DHT22;54685;52.082;5.426;2022-12-19T09:12:07;7.20;99.90
67890;DHT22;54685;52.082;5.426;2022-12-19T09:14:34;7.20;99.90
67890;DHT22;54685;52.082;5.426;2022-12-19T09:17:01;7.20;99.90
67890;DHT22;54685;52.082;5.426;2022-12-19T09:19:30;7.20;99.90
67890;DHT22;54685;52.082;5.426;2022-12-19T09:21:57;7.20;99.90
67890;DHT22;54685;52.082;5.426;2022-12-19T09:24:24;7.20;99.90
67890;DHT22;54685;52.082;5.426;2022-12-19T09:26:51;7.20;99.90
67890;DHT22;54685;52.082;5.426;2022-12-19T09:29:18;7.20;99.90
67890;DHT22;54685;52.082;5.426;2022-12-19T09:31:48;7.20;99.90
67890;DHT22;54685;52.082;5.426;2022-12-19T09:34:24;7.20;99.90
67890;DHT22;54685;52.082;5.426;2022-12-19T09:37:09;7.20;99.90
67890;DHT22;54685;52.082;5.426;2022-12-19T09:39:42;7.20;99.90
67890;DHT22;54685;52.082;5.426;2022-12-19T09:45:24;7.30;99.90
67890;DHT22;54685;52.082;5.426;2022-12-19T09:47:59;7.30;99.90
67890;DHT22;54685;52.082;5.426;2022-12-19T09:53:27;7.40;99.90
67890;DHT22;54685;52.082;5.426;2022-12-19T09:55:57;7.40;99.90
67890;DHT22;54685;52.082;5.426;2022-12-19T09:58:39;7.40;99.90
67890;DHT22;54685;52.082;5.426;2022-12-19T10:01:19;7.40;99.90
67890;DHT22;54685;52.082;5.426;2022-12-19T10:04:08;7.40;99.90
67890;DHT22;54685;52.082;5.426;2022-12-19T10:06:36;7.50;99.90
67890;DHT22;54685;52.082;5.426;2022-12-19T10:09:29;7.40;99.90
67890;DHT22;54685;52.082;5.426;2022-12-19T10:12:41;7.50;99.90
67890;DHT22;54685;52.082;5.426;2022-12-19T10:15:30;7.50;99.90
67890;DHT22;54685;52.082;5.426;2022-12-19T10:18:20;7.60;99.90
67890;DHT22;54685;52.082;5.426;2022-12-19T10:24:49;7.70;99.90
67890;DHT22;54685;52.082;5.426;2022-12-19T10:30:46;7.80;99.90
67890;DHT22;54685;52.082;5.426;2022-12-19T10:33:34;7.80;99.90
67890;DHT22;54685;52.082;5.426;2022-12-19T10:36:09;7.80;99.90
67890;DHT22;54685;52.082;5.426;2022-12-19T10:38:58;7.80;99.90
67890;DHT22;54685;52.082;5.426;2022-12-19T10:41:30;7.90;99.90
67890;DHT22;54685;52.082;5.426;2022-12-19T10:44:04;7.90;99.90
67890;DHT22;54685;52.082;5.426;2022-12-19T10:46:44;7.90;99.90
67890;DHT22;54685;52.082;5.426;2022-12-19T10:52:07;7.90;99.90
67890;DHT22;54685;52.082;5.426;2022-12-19T10:57:18;7.90;99.90
67890;DHT22;54685;52.082;5.426;2022-12-19T11:02:32;8.00;99.90
67890;DHT22;54685;52.082;5.426;2022-12-19T11:05:01;8.00;99.90
67890;DHT22;54685;52.082;5.426;2022-12-19T11:07:28;8.00;99.90
67890;DHT22;54685;52.082;5.426;2022-12-19T11:09:55;8.00;99.90
67890;DHT22;54685;52.082;5.426;2022-12-19T11:12:51;8.00;99.90
67890;DHT22;54685;52.082;5.426;2022-12-19T11:15:48;8.00;99.90
67890;DHT22;54685;52.082;5.426;2022-12-19T11:18:44;8.00;99.90
67890;DHT22;54685;52.082;5.426;2022-12-19T11:21:32;8.00;99.90
67890;DHT22;54685;52.082;5.426;2022-12-19T11:24:24;8.10;99.90
67890;DHT22;54685;52.082;5.426;2022-12-19T11:27:35;8.10;99.90
67890;DHT22;54685;52.082;5.426;2022-12-19T11:30:25;8.10;99.90
67890;DHT22;54685;52.082;5.426;2022-12-19T11:33:15;8.10;99.90
67890;DHT22;54685;52.082;5.426;2022-12-19T11:35:51;8.20;99.90
67890;DHT22;54685;52.082;5.426;2022-12-19T11:38:40;8.20;99.90
67890;DHT22;54685;52.082;5.426;2022-12-19T11:44:04;8.30;99.90
67890;DHT22;54685;52.082;5.426;2022-12-19T11:46:39;8.30;99.90
67890;DHT22;54685;52.082;5.426;2022-12-19T11:49:36;8.30;99.90
67890;DHT22;54685;52.082;5.426;2022-12-19T11:52:27;8.40;99.90
67890;DHT22;54685;52.082;5.426;2022-12-19T11:55:53;8.40;99.90
67890;DHT22;54685;52.082;5.426;2022-12-19T11:58:23;8.40;99.90
67890;DHT22;54685;52.082;5.426;2022-12-19T12:01:07;8.40;99.90
67890;DHT22;54685;52.082;5.426;2022-12-19T12:04:00;8.40;99.90
67890;DHT22;54685;52.082;5.426;2022-12-19T12:06:35;8.40;99.90
67890;DHT22;54685;52.082;5.426;2022-12-19T12:15:53;8.50;99.90
67890;DHT22;54685;52.082;5.426;2022-12-19T12:21:54;8.50;99.90
67890;DHT22;54685;52.082;5.426;2022-12-19T12:31:29;8.50;99.90
67890;DHT22;54685;52.082;5.426;2022-12-19T12:45:50;8.70;99.90
67890;DHT22;54685;52.082;5.426;2022-12-19T12:50:50;8.80;99.90
67890;DHT22;54685;52.082;5.426;2022-12-19T12:53:23;8.80;99.90
67890;DHT22;54685;52.082;5.426;2022-12-19T12:55:54;8.80;99.90
67890;DHT22;54685;52.082;5.426;2022-12-19T13:06:39;9.00;99.90
67890;DHT22;54685;52.082;5.426;2022-12-19T13:09:25;8.90;99.90
67890;DHT22;54685;52.082;5.426;2022-12-19T13:12:17;8.90;99.90
67890;DHT22;54685;52.082;5.426;2022-12-19T13:30:31;9.00;99.90
67890;DHT22;54685;52.082;5.426;2022-12-19T13:33:18;9.00;99.90
67890;DHT22;54685;52.082;5.426;2022-12-19T13:35:44;9.00;99.90
67890;DHT22;54685;52.082;5.426;2022-12-19T13:38:44;9.10;99.90
67890;DHT22;54685;52.082;5.426;2022-12-19T13:41:40;9.10;99.90
67890;DHT22;54685;52.082;5.426;2022-12-19T13:44:27;9.10;99.90
67890;DHT22;54685;52.082;5.426;2022-12-19T13:46:55;9.10;99.90
67890;DHT22;54685;52.082;5.426;2022-12-19T13:49:28;9.10;99.90
67890;DHT22;54685;52.082;5.426;2022-12-19T13:52:01;9.10;99.90
67890;DHT22;54685;52.082;5.426;2022-12-19T13:54:35;9.10;99.90
67890;DHT22;54685;52.082;5.426;2022-12-19T13:57:02;9.10;99.90
67890;DHT22;54685;52.082;5.426;2022-12-19T13:59:37;9.10;99.90
67890;DHT22;54685;52.082;5.426;2022-12-19T14:02:13;9.10;99.90
67890;DHT22;54685;52.082;5.426;2022-12-19T14:04:43;9.10;99.90
67890;DHT22;54685;52.082;5.426;2022-12-19T14:07:27;9.00;99.90
67890;DHT22;54685;52.082;5.426;2022-12-19T14:10:06;9.00;99.90
67890;DHT22;54685;52.082;5.426;2022-12-19T14:12:58;9.00;99.90
67890;DHT22;54685;52.082;5.426;2022-12-19T14:16:05;9.00;99.90
67890;DHT22;54685;52.082;5.426;2022-12-19T14:18:33;9.00;99.90
67890;DHT22;54685;52.082;5.426;2022-12-19T14:21:17;9.10;99.90
67890;DHT22;54685;52.082;5.426;2022-12-19T14:24:21;9.10;99.90
67890;DHT22;54685;52.082;5.426;2022-12-19T14:26:59;9.00;99.90
67890;DHT22;54685;52.082;5.426;2022-12-19T14:29:51;9.00;99.90
67890;DHT22;54685;52.082;5.426;2022-12-19T14:32:40;9.10;99.90
67890;DHT22;54685;52.082;5.426;2022-12-19T14:35:32;9.10;99.90
67890;DHT22;54685;52.082;5.426;2022-12-19T14:38:29;9.10;99.90
67890;DHT22;54685;52.082;5.426;2022-12-19T14:44:16;9.10;99.90
67890;DHT22;54685;52.082;5.426;2022-12-19T14:47:11;9.10;99.90
67890;DHT22;54685;52.082;5.426;2022-12-19T14:49:59;9.10;99.90
67890;DHT22;54685;52.082;5.426;2022-12-19T14:52:46;9.10;99.90
67890;DHT22;54685;52.082;5.426;2022-12-19T14:55:43;9.10;99.90
67890;DHT22;54685;52.082;5.426;2022-12-19T14:58:36;9.10;99.90
67890;DHT22;54685;52.082;5.426;2022-12-19T15:01:24;9.10;99.90
67890;DHT22;54685;52.082;5.426;2022-12-19T15:04:04;9.10;99.90
67890;DHT22;54685;52.082;5.426;2022-12-19T15:06:54;9.20;99.90
67890;DHT22;54685;52.082;5.426;2022-12-19T15:09:59;9.20;99.90
67890;DHT22;54685;52.082;5.426;2022-12-19T15:20:59;9.30;99.90
67890;DHT22;54685;52.082;5.426;2022-12-19T15:23:27;9.30;99.90
67890;DHT22;54685;52.082;5.426;2022-12-19T15:25:56;9.20;99.90
67890;DHT22;54685;52.082;5.426;2022-12-19T15:28:52;9.20;99.90
67890;DHT22;54685;52.082;5.426;2022-12-19T15:31:36;9.20;99.90
67890;DHT22;54685;52.082;5.426;2022-12-19T15:36:56;9.00;99.90
67890;DHT22;54685;52.082;5.426;2022-12-19T15:39:23;9.00;99.90
67890;DHT22;54685;52.082;5.426;2022-12-19T15:41:53;8.90;99.90
67890;DHT22;54685;52.082;5.426;2022-12-19T15:44:40;8.90;99.90
67890;DHT22;54685;52.082;5.426;2022-12-19T15:47:16;8.90;99.90
67890;DHT22;54685;52.082;5.426;2022-12-19T15:49:44;8.80;99.90
67890;DHT22;54685;52.082;5.426;2022-12-19T15:52:19;8.80;99.90
67890;DHT22;54685;52.082;5.426;2022-12-19T15:54:46;8.80;99.90
67890;DHT22;54685;52.082;5.426;2022-12-19T15:57:35;8.80;99.90
67890;DHT22;54685;52.082;5.426;2022-12-19T16:00:27;8.80;99.90
67890;DHT22;54685;52.082;5.426;2022-12-19T16:02:53;8.70;99.90
67890;DHT22;54685;52.082;5.426;2022-12-19T16:05:40;8.70;99.90
67890;DHT22;54685;52.082;5.426;2022-12-19T16:08:21;8.70;99.90
67890;DHT22;54685;52.082;5.426;2022-12-19T16:10:53;8.70;99.90
67890;DHT22;54685;52.082;5.426;2022-12-19T16:13:29;8.60;99.90
67890;DHT22;54685;52.082;5.426;2022-12-19T16:15:57;8.60;99.90
67890;DHT22;54685;52.082;5.426;2022-12-19T16:18:24;8.60;99.90
67890;DHT22;54685;52.082;5.426;2022-12-19T16:20:51;8.60;99.90
67890;DHT22;54685;52.082;5.426;2022-12-19T16:23:19;8.60;99.90
67890;DHT22;54685;52.082;5.426;2022-12-19T16:25:53;8.60;99.90
67890;DHT22;54685;52.082;5.426;2022-12-19T16:28:30;8.60;99.90
67890;DHT22;54685;52.082;5.426;2022-12-19T16:31:13;8.60;99.90
67890;DHT22;54685;52.082;5.426;2022-12-19T16:33:41;8.60;99.90
67890;DHT22;54685;52.082;5.426;2022-12-19T16:36:08;8.70;99.90
67890;DHT22;54685;52.082;5.426;2022-12-19T16:38:35;8.70;99.90
67890;DHT22;54685;52.082;5.426;2022-12-19T16:41:05;8.70;99.90
67890;DHT22;54685;52.082;5.426;2022-12-19T16:43:39;8.80;99.90
67890;DHT22;54685;52.082;5.426;2022-12-19T16:46:15;8.80;99.90
67890;DHT22;54685;52.082;5.426;2022-12-19T16:48:42;8.80;99.90
67890;DHT22;54685;52.082;5.426;2022-12-19T16:51:23;8.90;99.90
67890;DHT22;54685;52.082;5.426;2022-12-19T16:53:52;8.90;99.90
67890;DHT22;54685;52.082;5.426;2022-12-19T16:56:44;9.00;99.90
67890;DHT22;54685;52.082;5.426;2022-12-19T17:01:43;9.00;99.90
67890;DHT22;54685;52.082;5.426;2022-12-19T17:04:19;9.00;99.90
67890;DHT22;54685;52.082;5.426;2022-12-19T17:06:48;9.00;99.90
67890;DHT22;54685;52.082;5.426;2022-12-19T17:09:17;9.00;99.90
67890;DHT22;54685;52.082;5.426;2022-12-19T17:11:50;9.00;99.90
67890;DHT22;54685;52.082;5.426;2022-12-19T17:14:22;9.00;99.90
67890;DHT22;54685;52.082;5.426;2022-12-19T17:16:53;9.00;99.90
67890;DHT22;54685;52.082;5.426;2022-12-19T17:19:29;9.00;99.90
67890;DHT22;54685;52.082;5.426;2022-12-19T17:21:57;9.10;99.90
67890;DHT22;54685;52.082;5.426;2022-12-19T17:24:24;9.10;99.90
67890;DHT22;54685;52.082;5.426;2022-12-19T17:26:50;9.10;99.90
67890;DHT22;54685;52.082;5.426;2022-12-19T17:29:17;9.10;99.90
67890;DHT22;54685;52.082;5.426;2022-12-19T17:31:44;9.10;99.90
67890;DHT22;54685;52.082;5.426;2022-12-19T17:34:21;9.10;99.90
67890;DHT22;54685;52.082;5.426;2022-12-19T17:36:50;9.10;99.90
67890;DHT22;54685;52.082;5.426;2022-12-19T17:39:19;9.10;99.90
67890;DHT22;54685;52.082;5.426;2022-12-19T17:41:50;9.10;99.90
67890;DHT22;54685;52.082;5.426;2022-12-19T17:44:17;9.10;99.90
67890;DHT22;54685;52.082;5.426;2022-12-19T17:46:45;9.10;99.90
67890;DHT22;54685;52.082;5.426;2022-12-19T17:49:33;9.10;99.90
67890;DHT22;54685;52.082;5.426;2022-12-19T17:51:59;9.10;99.90
67890;DHT22;54685;52.082;5.426;2022-12-19T17:54:26;9.10;99.90
67890;DHT22;54685;52.082;5.426;2022-12-19T17:56:54;9.00;99.90
67890;DHT22;54685;52.082;5.426;2022-12-19T17:59:20;9.00;99.90
67890;DHT22;54685;52.082;5.426;2022-12-19T18:01:47;9.00;99.90
67890;DHT22;54685;52.082;5.426;2022-12-19T18:04:18;9.10;99.90
67890;DHT22;54685;52.082;5.426;2022-12-19T18:06:46;9.00;99.90
67890;DHT22;54685;52.082;5.426;2022-12-19T18:09:17;9.00;99.90
67890;DHT22;54685;52.082;5.426;2022-12-19T18:11:44;9.00;99.90
67890;DHT22;54685;52.082;5.426;2022-12-19T18:14:11;9.00;99.90
67890;DHT22;54685;52.082;5.426;2022-12-19T18:16:38;9.00;99.90
67890;DHT22;54685;52.082;5.426;2022-12-19T18:19:06;9.00;99.90
67890;DHT22;54685;52.082;5.426;2022-12-19T18:21:38;9.00;99.90
67890;DHT22;54685;52.082;5.426;2022-12-19T18:24:12;9.00;99.90
67890;DHT22;54685;52.082;5.426;2022-12-19T18:26:39;9.00;99.90
67890;DHT22;54685;52.082;5.426;2022-12-19T18:29:06;9.00;99.90
67890;DHT22;54685;52.082;5.426;2022-12-19T18:31:33;9.10;99.90
67890;DHT22;54685;52.082;5.426;2022-12-19T18:34:02;9.10;99.90